sensor_id;sensor_type;location;lat;lon;timestamp;pressure;altitude;pressure_sealevel;temperature;humidity
69630;BME280;56857;52.212;5.496;2022-11-09T00:02:09;100477.19;;;12.61;90.81
69630;BME280;56857;52.212;5.496;2022-11-09T00:04:34;100474.38;;;12.62;91.00
69630;BME280;56857;52.212;5.496;2022-11-09T00:06:59;100473.34;;;12.63;90.72
69630;BME280;56857;52.212;5.496;2022-11-09T00:09:25;100472.34;;;12.64;90.88
69630;BME280;56857;52.212;5.496;2022-11-09T00:11:52;100475.81;;;12.65;90.91
69630;BME280;56857;52.212;5.496;2022-11-09T00:14:18;100484.63;;;12.65;90.71
69630;BME280;56857;52.212;5.496;2022-11-09T00:16:44;100489.94;;;12.65;90.54
69630;BME280;56857;52.212;5.496;2022-11-09T00:19:09;100487.94;;;12.67;90.83
69630;BME280;56857;52.212;5.496;2022-11-09T00:21:35;100488.91;;;12.66;90.44
69630;BME280;56857;52.212;5.496;2022-11-09T00:24:00;100484.41;;;12.67;90.64
69630;BME280;56857;52.212;5.496;2022-11-09T00:26:25;100485.25;;;12.67;90.43
69630;BME280;56857;52.212;5.496;2022-11-09T00:28:51;100487.06;;;12.67;90.28
69630;BME280;56857;52.212;5.496;2022-11-09T00:31:19;100492.59;;;12.65;90.27
69630;BME280;56857;52.212;5.496;2022-11-09T00:33:50;100489.13;;;12.65;90.51
69630;BME280;56857;52.212;5.496;2022-11-09T00:36:16;100488.09;;;12.66;90.59
69630;BME280;56857;52.212;5.496;2022-11-09T00:38:47;100490.75;;;12.66;90.54
69630;BME280;56857;52.212;5.496;2022-11-09T00:41:13;100497.53;;;12.68;90.33
69630;BME280;56857;52.212;5.496;2022-11-09T00:43:38;100486.91;;;12.68;90.58
69630;BME280;56857;52.212;5.496;2022-11-09T00:46:04;100481.38;;;12.70;90.51
69630;BME280;56857;52.212;5.496;2022-11-09T00:48:30;100476.06;;;12.70;90.74
69630;BME280;56857;52.212;5.496;2022-11-09T00:50:56;100484.03;;;12.70;90.67
69630;BME280;56857;52.212;5.496;2022-11-09T00:53:22;100480.75;;;12.68;90.62
69630;BME280;56857;52.212;5.496;2022-11-09T00:56:07;100473.16;;;12.65;90.51
69630;BME280;56857;52.212;5.496;2022-11-09T00:58:35;100478.06;;;12.61;90.65
69630;BME280;56857;52.212;5.496;2022-11-09T01:01:15;100469.81;;;12.56;90.43
69630;BME280;56857;52.212;5.496;2022-11-09T01:03:44;100470.00;;;12.55;90.71
69630;BME280;56857;52.212;5.496;2022-11-09T01:06:18;100464.22;;;12.51;90.57
69630;BME280;56857;52.212;5.496;2022-11-09T01:08:44;100475.91;;;12.50;90.74
69630;BME280;56857;52.212;5.496;2022-11-09T01:11:11;100481.59;;;12.47;90.70
69630;BME280;56857;52.212;5.496;2022-11-09T01:13:37;100477.28;;;12.46;90.46
69630;BME280;56857;52.212;5.496;2022-11-09T01:16:16;100474.19;;;12.42;90.54
69630;BME280;56857;52.212;5.496;2022-11-09T01:18:41;100479.53;;;12.42;90.66
69630;BME280;56857;52.212;5.496;2022-11-09T01:21:09;100482.34;;;12.41;90.43
69630;BME280;56857;52.212;5.496;2022-11-09T01:23:37;100485.22;;;12.39;90.74
69630;BME280;56857;52.212;5.496;2022-11-09T01:26:05;100493.56;;;12.36;90.49
69630;BME280;56857;52.212;5.496;2022-11-09T01:28:31;100484.75;;;12.36;90.28
69630;BME280;56857;52.212;5.496;2022-11-09T01:31:08;100485.31;;;12.31;90.29
69630;BME280;56857;52.212;5.496;2022-11-09T01:33:35;100488.34;;;12.28;90.21
69630;BME280;56857;52.212;5.496;2022-11-09T01:36:02;100495.06;;;12.24;90.38
69630;BME280;56857;52.212;5.496;2022-11-09T01:38:28;100487.28;;;12.22;90.58
69630;BME280;56857;52.212;5.496;2022-11-09T01:40:53;100490.94;;;12.21;90.01
69630;BME280;56857;52.212;5.496;2022-11-09T01:43:21;100492.97;;;12.19;90.12
69630;BME280;56857;52.212;5.496;2022-11-09T01:46:13;100488.84;;;12.17;89.90
69630;BME280;56857;52.212;5.496;2022-11-09T01:48:51;100491.69;;;12.15;89.78
69630;BME280;56857;52.212;5.496;2022-11-09T01:53:53;100491.69;;;12.15;89.58
69630;BME280;56857;52.212;5.496;2022-11-09T01:56:20;100492.53;;;12.16;89.52
69630;BME280;56857;52.212;5.496;2022-11-09T01:58:50;100495.19;;;12.16;89.61
69630;BME280;56857;52.212;5.496;2022-11-09T02:01:24;100498.03;;;12.14;89.58
69630;BME280;56857;52.212;5.496;2022-11-09T02:03:55;100501.31;;;12.16;89.39
69630;BME280;56857;52.212;5.496;2022-11-09T02:06:22;100497.03;;;12.15;89.37
69630;BME280;56857;52.212;5.496;2022-11-09T02:08:50;100499.69;;;12.15;89.23
69630;BME280;56857;52.212;5.496;2022-11-09T02:11:19;100507.44;;;12.17;89.44
69630;BME280;56857;52.212;5.496;2022-11-09T02:13:57;100491.69;;;12.15;88.96
69630;BME280;56857;52.212;5.496;2022-11-09T02:16:25;100501.31;;;12.16;89.08
69630;BME280;56857;52.212;5.496;2022-11-09T02:18:55;100497.03;;;12.15;88.71
69630;BME280;56857;52.212;5.496;2022-11-09T02:21:23;100489.25;;;12.14;88.85
69630;BME280;56857;52.212;5.496;2022-11-09T02:23:50;100482.28;;;12.13;88.84
69630;BME280;56857;52.212;5.496;2022-11-09T02:26:34;100472.84;;;12.10;88.60
69630;BME280;56857;52.212;5.496;2022-11-09T02:29:05;100485.13;;;12.11;89.04
69630;BME280;56857;52.212;5.496;2022-11-09T02:31:34;100491.25;;;12.12;88.89
69630;BME280;56857;52.212;5.496;2022-11-09T02:34:12;100480.44;;;12.13;88.99
69630;BME280;56857;52.212;5.496;2022-11-09T02:36:38;100485.19;;;12.18;88.76
69630;BME280;56857;52.212;5.496;2022-11-09T02:39:04;100488.66;;;12.18;88.97
69630;BME280;56857;52.212;5.496;2022-11-09T02:41:31;100491.50;;;12.17;88.76
69630;BME280;56857;52.212;5.496;2022-11-09T02:43:58;100501.69;;;12.13;88.95
69630;BME280;56857;52.212;5.496;2022-11-09T02:46:30;100494.94;;;12.11;88.79
69630;BME280;56857;52.212;5.496;2022-11-09T02:48:55;100496.13;;;12.08;89.07
69630;BME280;56857;52.212;5.496;2022-11-09T02:51:21;100493.84;;;12.05;89.14
69630;BME280;56857;52.212;5.496;2022-11-09T02:53:48;100488.09;;;12.01;89.38
69630;BME280;56857;52.212;5.496;2022-11-09T02:56:13;100494.22;;;12.02;89.96
69630;BME280;56857;52.212;5.496;2022-11-09T02:58:38;100501.53;;;12.00;90.41
69630;BME280;56857;52.212;5.496;2022-11-09T03:01:04;100499.72;;;12.00;90.73
69630;BME280;56857;52.212;5.496;2022-11-09T03:03:29;100478.09;;;12.03;90.49
69630;BME280;56857;52.212;5.496;2022-11-09T03:05:55;100482.41;;;12.04;90.60
69630;BME280;56857;52.212;5.496;2022-11-09T03:08:20;100492.00;;;12.05;90.73
69630;BME280;56857;52.212;5.496;2022-11-09T03:10:45;100489.34;;;12.05;91.08
69630;BME280;56857;52.212;5.496;2022-11-09T03:13:11;100491.81;;;12.07;91.52
69630;BME280;56857;52.212;5.496;2022-11-09T03:15:36;100490.00;;;12.08;91.54
69630;BME280;56857;52.212;5.496;2022-11-09T03:18:02;100496.94;;;12.09;91.30
69630;BME280;56857;52.212;5.496;2022-11-09T03:20:27;100498.78;;;12.08;91.59
69630;BME280;56857;52.212;5.496;2022-11-09T03:22:56;100496.31;;;12.06;91.60
69630;BME280;56857;52.212;5.496;2022-11-09T03:25:21;100491.38;;;12.03;91.85
69630;BME280;56857;52.212;5.496;2022-11-09T03:27:46;100494.03;;;12.03;91.64
69630;BME280;56857;52.212;5.496;2022-11-09T03:30:12;100501.53;;;12.00;91.81
69630;BME280;56857;52.212;5.496;2022-11-09T03:32:38;100501.75;;;11.98;91.83
69630;BME280;56857;52.212;5.496;2022-11-09T03:35:08;100496.81;;;11.95;92.06
69630;BME280;56857;52.212;5.496;2022-11-09T03:37:33;100500.66;;;11.93;92.06
69630;BME280;56857;52.212;5.496;2022-11-09T03:39:58;100492.03;;;11.91;92.28
69630;BME280;56857;52.212;5.496;2022-11-09T03:42:24;100497.53;;;11.89;92.35
69630;BME280;56857;52.212;5.496;2022-11-09T03:44:49;100503.22;;;11.86;92.71
69630;BME280;56857;52.212;5.496;2022-11-09T03:47:14;100490.94;;;11.85;92.92
69630;BME280;56857;52.212;5.496;2022-11-09T03:49:40;100493.75;;;11.83;92.67
69630;BME280;56857;52.212;5.496;2022-11-09T03:52:05;100504.56;;;11.82;92.92
69630;BME280;56857;52.212;5.496;2022-11-09T03:54:30;100508.44;;;11.79;93.15
69630;BME280;56857;52.212;5.496;2022-11-09T03:56:56;100521.72;;;11.79;93.14
69630;BME280;56857;52.212;5.496;2022-11-09T03:59:21;100530.66;;;11.78;93.55
69630;BME280;56857;52.212;5.496;2022-11-09T04:01:46;100544.97;;;11.77;93.50
69630;BME280;56857;52.212;5.496;2022-11-09T04:04:12;100540.66;;;11.76;93.51
69630;BME280;56857;52.212;5.496;2022-11-09T04:06:37;100547.81;;;11.76;93.50
69630;BME280;56857;52.212;5.496;2022-11-09T04:09:02;100550.47;;;11.76;93.56
69630;BME280;56857;52.212;5.496;2022-11-09T04:11:27;100545.34;;;11.74;93.34
69630;BME280;56857;52.212;5.496;2022-11-09T04:13:53;100545.53;;;11.73;93.89
69630;BME280;56857;52.212;5.496;2022-11-09T04:16:20;100543.03;;;11.71;93.51
69630;BME280;56857;52.212;5.496;2022-11-09T04:18:45;100537.94;;;11.70;93.75
69630;BME280;56857;52.212;5.496;2022-11-09T04:21:11;100543.41;;;11.68;93.95
69630;BME280;56857;52.212;5.496;2022-11-09T04:23:36;100539.13;;;11.67;94.11
69630;BME280;56857;52.212;5.496;2022-11-09T04:26:02;100549.09;;;11.65;93.71
69630;BME280;56857;52.212;5.496;2022-11-09T04:28:28;100542.13;;;11.64;93.68
69630;BME280;56857;52.212;5.496;2022-11-09T04:30:53;100553.75;;;11.63;93.72
69630;BME280;56857;52.212;5.496;2022-11-09T04:33:19;100549.28;;;11.64;93.60
69630;BME280;56857;52.212;5.496;2022-11-09T04:35:44;100554.59;;;11.64;93.52
69630;BME280;56857;52.212;5.496;2022-11-09T04:38:12;100555.78;;;11.61;93.60
69630;BME280;56857;52.212;5.496;2022-11-09T04:40:37;100560.28;;;11.60;93.79
69630;BME280;56857;52.212;5.496;2022-11-09T04:43:06;100566.56;;;11.59;93.90
69630;BME280;56857;52.212;5.496;2022-11-09T04:45:33;100564.94;;;11.58;93.55
69630;BME280;56857;52.212;5.496;2022-11-09T04:48:00;100570.25;;;11.58;93.65
69630;BME280;56857;52.212;5.496;2022-11-09T04:50:27;100570.25;;;11.58;93.62
69630;BME280;56857;52.212;5.496;2022-11-09T04:52:52;100575.75;;;11.57;93.70
69630;BME280;56857;52.212;5.496;2022-11-09T04:55:19;100571.41;;;11.56;93.41
69630;BME280;56857;52.212;5.496;2022-11-09T04:57:45;100573.25;;;11.55;93.22
69630;BME280;56857;52.212;5.496;2022-11-09T05:00:11;100569.78;;;11.55;93.12
69630;BME280;56857;52.212;5.496;2022-11-09T05:02:36;100569.78;;;11.55;93.02
69630;BME280;56857;52.212;5.496;2022-11-09T05:05:02;100568.13;;;11.54;93.18
69630;BME280;56857;52.212;5.496;2022-11-09T05:07:27;100577.91;;;11.53;93.08
69630;BME280;56857;52.212;5.496;2022-11-09T05:09:53;100576.47;;;11.51;92.96
69630;BME280;56857;52.212;5.496;2022-11-09T05:12:18;100567.84;;;11.49;92.95
69630;BME280;56857;52.212;5.496;2022-11-09T05:14:43;100571.31;;;11.49;92.89
69630;BME280;56857;52.212;5.496;2022-11-09T05:17:09;100575.81;;;11.49;92.95
69630;BME280;56857;52.212;5.496;2022-11-09T05:19:34;100573.97;;;11.49;93.02
69630;BME280;56857;52.212;5.496;2022-11-09T05:22:00;100567.66;;;11.50;92.83
69630;BME280;56857;52.212;5.496;2022-11-09T05:24:25;100561.88;;;11.47;92.37
69630;BME280;56857;52.212;5.496;2022-11-09T05:26:50;100572.69;;;11.45;92.56
69630;BME280;56857;52.212;5.496;2022-11-09T05:29:16;100572.88;;;11.44;92.58
69630;BME280;56857;52.212;5.496;2022-11-09T05:31:41;100571.22;;;11.43;92.78
69630;BME280;56857;52.212;5.496;2022-11-09T05:34:06;100571.22;;;11.43;92.91
69630;BME280;56857;52.212;5.496;2022-11-09T05:36:32;100582.66;;;11.43;92.61
69630;BME280;56857;52.212;5.496;2022-11-09T05:38:58;100581.84;;;11.43;92.61
69630;BME280;56857;52.212;5.496;2022-11-09T05:41:24;100584.50;;;11.43;92.78
69630;BME280;56857;52.212;5.496;2022-11-09T05:43:50;100583.69;;;11.42;92.68
69630;BME280;56857;52.212;5.496;2022-11-09T05:46:17;100580.22;;;11.42;93.17
69630;BME280;56857;52.212;5.496;2022-11-09T05:48:43;100582.00;;;11.41;93.12
69630;BME280;56857;52.212;5.496;2022-11-09T05:51:11;100581.19;;;11.41;93.01
69630;BME280;56857;52.212;5.496;2022-11-09T05:53:37;100576.09;;;11.39;93.26
69630;BME280;56857;52.212;5.496;2022-11-09T05:56:07;100578.72;;;11.39;93.33
69630;BME280;56857;52.212;5.496;2022-11-09T05:58:36;100570.13;;;11.37;93.21
69630;BME280;56857;52.212;5.496;2022-11-09T06:01:06;100569.50;;;11.35;94.02
69630;BME280;56857;52.212;5.496;2022-11-09T06:03:32;100572.97;;;11.35;93.65
69630;BME280;56857;52.212;5.496;2022-11-09T06:06:05;100577.25;;;11.36;93.88
69630;BME280;56857;52.212;5.496;2022-11-09T06:08:31;100574.81;;;11.35;94.04
69630;BME280;56857;52.212;5.496;2022-11-09T06:10:59;100573.94;;;11.34;93.88
69630;BME280;56857;52.212;5.496;2022-11-09T06:13:25;100581.09;;;11.34;94.07
69630;BME280;56857;52.212;5.496;2022-11-09T06:15:53;100579.25;;;11.34;93.95
69630;BME280;56857;52.212;5.496;2022-11-09T06:18:18;100584.56;;;11.34;93.71
69630;BME280;56857;52.212;5.496;2022-11-09T06:20:43;100586.41;;;11.34;93.99
69630;BME280;56857;52.212;5.496;2022-11-09T06:23:09;100587.41;;;11.33;94.35
69630;BME280;56857;52.212;5.496;2022-11-09T06:25:34;100594.56;;;11.32;94.20
69630;BME280;56857;52.212;5.496;2022-11-09T06:28:00;100591.72;;;11.34;94.04
69630;BME280;56857;52.212;5.496;2022-11-09T06:30:25;100594.38;;;11.34;93.94
69630;BME280;56857;52.212;5.496;2022-11-09T06:32:56;100604.16;;;11.33;94.20
69630;BME280;56857;52.212;5.496;2022-11-09T06:35:21;100606.81;;;11.33;94.02
69630;BME280;56857;52.212;5.496;2022-11-09T06:37:46;100607.63;;;11.34;94.13
69630;BME280;56857;52.212;5.496;2022-11-09T06:40:12;100616.41;;;11.34;94.09
69630;BME280;56857;52.212;5.496;2022-11-09T06:42:38;100615.59;;;11.34;94.09
69630;BME280;56857;52.212;5.496;2022-11-09T06:45:03;100613.13;;;11.32;94.16
69630;BME280;56857;52.212;5.496;2022-11-09T06:47:29;100612.31;;;11.32;94.11
69630;BME280;56857;52.212;5.496;2022-11-09T06:49:54;100612.13;;;11.33;94.18
69630;BME280;56857;52.212;5.496;2022-11-09T06:52:19;100615.78;;;11.32;94.14
69630;BME280;56857;52.212;5.496;2022-11-09T06:54:45;100615.94;;;11.31;94.33
69630;BME280;56857;52.212;5.496;2022-11-09T06:57:10;100623.09;;;11.30;94.23
69630;BME280;56857;52.212;5.496;2022-11-09T06:59:35;100624.28;;;11.28;94.62
69630;BME280;56857;52.212;5.496;2022-11-09T07:02:01;100619.16;;;11.26;94.91
69630;BME280;56857;52.212;5.496;2022-11-09T07:04:26;100619.16;;;11.26;94.39
69630;BME280;56857;52.212;5.496;2022-11-09T07:06:52;100625.28;;;11.27;94.52
69630;BME280;56857;52.212;5.496;2022-11-09T07:09:17;100626.94;;;11.28;94.69
69630;BME280;56857;52.212;5.496;2022-11-09T07:11:42;100626.09;;;11.27;94.53
69630;BME280;56857;52.212;5.496;2022-11-09T07:14:08;100627.94;;;11.27;95.31
69630;BME280;56857;52.212;5.496;2022-11-09T07:16:34;100632.41;;;11.26;95.18
69630;BME280;56857;52.212;5.496;2022-11-09T07:18:59;100643.84;;;11.27;95.03
69630;BME280;56857;52.212;5.496;2022-11-09T07:21:25;100640.38;;;11.26;95.01
69630;BME280;56857;52.212;5.496;2022-11-09T07:23:50;100636.72;;;11.27;94.88
69630;BME280;56857;52.212;5.496;2022-11-09T07:26:16;100643.84;;;11.27;95.29
69630;BME280;56857;52.212;5.496;2022-11-09T07:28:42;100642.69;;;11.29;95.24
69630;BME280;56857;52.212;5.496;2022-11-09T07:31:08;100645.16;;;11.31;95.21
69630;BME280;56857;52.212;5.496;2022-11-09T07:33:33;100646.97;;;11.30;95.30
69630;BME280;56857;52.212;5.496;2022-11-09T07:36:00;100646.81;;;11.32;95.23
69630;BME280;56857;52.212;5.496;2022-11-09T07:38:27;100645.97;;;11.31;95.41
69630;BME280;56857;52.212;5.496;2022-11-09T07:40:52;100646.81;;;11.32;95.48
69630;BME280;56857;52.212;5.496;2022-11-09T07:43:18;100656.41;;;11.33;95.88
69630;BME280;56857;52.212;5.496;2022-11-09T07:45:44;100652.38;;;11.37;95.76
69630;BME280;56857;52.212;5.496;2022-11-09T07:48:10;100655.50;;;11.41;95.64
69630;BME280;56857;52.212;5.496;2022-11-09T07:50:38;100650.03;;;11.42;95.97
69630;BME280;56857;52.212;5.496;2022-11-09T07:53:05;100652.50;;;11.44;95.91
69630;BME280;56857;52.212;5.496;2022-11-09T07:55:31;100657.81;;;11.44;96.11
69630;BME280;56857;52.212;5.496;2022-11-09T07:57:58;100661.13;;;11.46;95.92
69630;BME280;56857;52.212;5.496;2022-11-09T08:00:27;100653.81;;;11.48;95.78
69630;BME280;56857;52.212;5.496;2022-11-09T08:02:53;100661.22;;;11.52;95.66
69630;BME280;56857;52.212;5.496;2022-11-09T08:05:18;100663.88;;;11.52;95.90
69630;BME280;56857;52.212;5.496;2022-11-09T08:07:44;100664.53;;;11.54;95.69
69630;BME280;56857;52.212;5.496;2022-11-09T08:10:09;100660.84;;;11.55;95.86
69630;BME280;56857;52.212;5.496;2022-11-09T08:12:35;100659.84;;;11.56;95.63
69630;BME280;56857;52.212;5.496;2022-11-09T08:15:00;100664.16;;;11.57;95.66
69630;BME280;56857;52.212;5.496;2022-11-09T08:17:26;100663.16;;;11.58;95.62
69630;BME280;56857;52.212;5.496;2022-11-09T08:19:52;100663.81;;;11.60;95.73
69630;BME280;56857;52.212;5.496;2022-11-09T08:22:18;100669.75;;;11.63;95.65
69630;BME280;56857;52.212;5.496;2022-11-09T08:24:44;100672.03;;;11.66;95.38
69630;BME280;56857;52.212;5.496;2022-11-09T08:27:09;100670.03;;;11.68;95.35
69630;BME280;56857;52.212;5.496;2022-11-09T08:29:34;100680.47;;;11.69;95.59
69630;BME280;56857;52.212;5.496;2022-11-09T08:32:00;100671.97;;;11.74;95.41
69630;BME280;56857;52.212;5.496;2022-11-09T08:34:25;100685.72;;;11.77;95.25
69630;BME280;56857;52.212;5.496;2022-11-09T08:36:52;100681.69;;;11.81;95.11
69630;BME280;56857;52.212;5.496;2022-11-09T08:39:18;100681.34;;;11.85;94.74
69630;BME280;56857;52.212;5.496;2022-11-09T08:41:45;100693.44;;;11.87;94.78
69630;BME280;56857;52.212;5.496;2022-11-09T08:44:10;100686.13;;;11.89;94.67
69630;BME280;56857;52.212;5.496;2022-11-09T08:46:36;100676.97;;;11.92;94.39
69630;BME280;56857;52.212;5.496;2022-11-09T08:49:01;100686.59;;;11.93;93.95
69630;BME280;56857;52.212;5.496;2022-11-09T08:51:26;100685.22;;;11.97;93.81
69630;BME280;56857;52.212;5.496;2022-11-09T08:53:52;100687.50;;;12.00;93.53
69630;BME280;56857;52.212;5.496;2022-11-09T08:56:17;100682.84;;;12.02;93.62
69630;BME280;56857;52.212;5.496;2022-11-09T08:58:43;100689.44;;;12.06;93.18
69630;BME280;56857;52.212;5.496;2022-11-09T09:01:09;100688.25;;;12.09;92.82
69630;BME280;56857;52.212;5.496;2022-11-09T09:03:35;100693.84;;;12.14;92.88
69630;BME280;56857;52.212;5.496;2022-11-09T09:06:05;100692.47;;;12.18;92.54
69630;BME280;56857;52.212;5.496;2022-11-09T09:08:31;100689.69;;;12.26;92.37
69630;BME280;56857;52.212;5.496;2022-11-09T09:11:01;100698.41;;;12.35;91.63
69630;BME280;56857;52.212;5.496;2022-11-09T09:13:26;100685.84;;;12.43;91.56
69630;BME280;56857;52.212;5.496;2022-11-09T09:15:52;100694.94;;;12.49;90.70
69630;BME280;56857;52.212;5.496;2022-11-09T09:18:18;100696.63;;;12.57;90.67
69630;BME280;56857;52.212;5.496;2022-11-09T09:20:43;100691.41;;;12.63;90.61
69630;BME280;56857;52.212;5.496;2022-11-09T09:23:09;100694.50;;;12.67;90.46
69630;BME280;56857;52.212;5.496;2022-11-09T09:25:34;100695.59;;;12.72;89.87
69630;BME280;56857;52.212;5.496;2022-11-09T09:27:59;100696.69;;;12.78;89.54
69630;BME280;56857;52.212;5.496;2022-11-09T09:30:25;100700.00;;;12.80;88.97
69630;BME280;56857;52.212;5.496;2022-11-09T09:32:50;100695.69;;;12.79;88.23
69630;BME280;56857;52.212;5.496;2022-11-09T09:35:16;100692.47;;;12.84;88.26
69630;BME280;56857;52.212;5.496;2022-11-09T09:37:42;100701.34;;;12.91;88.53
69630;BME280;56857;52.212;5.496;2022-11-09T09:40:25;100697.66;;;12.92;87.02
69630;BME280;56857;52.212;5.496;2022-11-09T09:42:53;100706.34;;;13.01;87.51
69630;BME280;56857;52.212;5.496;2022-11-09T09:45:22;100704.88;;;12.98;86.44
69630;BME280;56857;52.212;5.496;2022-11-09T09:48:01;100706.09;;;12.95;85.99
69630;BME280;56857;52.212;5.496;2022-11-09T09:50:31;100707.38;;;12.99;86.44
69630;BME280;56857;52.212;5.496;2022-11-09T09:53:13;100708.91;;;13.09;85.95
69630;BME280;56857;52.212;5.496;2022-11-09T09:55:44;100709.97;;;13.14;86.00
69630;BME280;56857;52.212;5.496;2022-11-09T09:58:22;100721.69;;;13.20;85.35
69630;BME280;56857;52.212;5.496;2022-11-09T10:00:51;100717.78;;;13.16;85.02
69630;BME280;56857;52.212;5.496;2022-11-09T10:03:18;100723.84;;;13.10;85.37
69630;BME280;56857;52.212;5.496;2022-11-09T10:12:02;100744.31;;;13.09;84.86
69630;BME280;56857;52.212;5.496;2022-11-09T10:22:34;100745.72;;;13.05;85.27
69630;BME280;56857;52.212;5.496;2022-11-09T10:25:05;100746.16;;;13.09;85.39
69630;BME280;56857;52.212;5.496;2022-11-09T10:27:35;100754.97;;;13.09;85.07
69630;BME280;56857;52.212;5.496;2022-11-09T10:30:10;100740.19;;;13.07;84.94
69630;BME280;56857;52.212;5.496;2022-11-09T10:32:36;100739.25;;;13.14;84.89
69630;BME280;56857;52.212;5.496;2022-11-09T10:37:40;100761.75;;;13.12;84.63
69630;BME280;56857;52.212;5.496;2022-11-09T10:40:23;100767.47;;;13.09;84.88
69630;BME280;56857;52.212;5.496;2022-11-09T10:42:59;100755.78;;;13.10;84.83
69630;BME280;56857;52.212;5.496;2022-11-09T10:47:55;100743.75;;;13.29;83.16
69630;BME280;56857;52.212;5.496;2022-11-09T10:53:06;100750.81;;;13.64;82.54
69630;BME280;56857;52.212;5.496;2022-11-09T10:55:32;100743.25;;;13.68;80.81
69630;BME280;56857;52.212;5.496;2022-11-09T10:58:02;100746.78;;;13.68;81.74
69630;BME280;56857;52.212;5.496;2022-11-09T11:00:54;100746.13;;;13.66;81.15
69630;BME280;56857;52.212;5.496;2022-11-09T11:03:22;100739.94;;;13.59;81.76
69630;BME280;56857;52.212;5.496;2022-11-09T11:05:56;100740.69;;;13.53;80.99
69630;BME280;56857;52.212;5.496;2022-11-09T11:08:32;100743.53;;;13.52;81.81
69630;BME280;56857;52.212;5.496;2022-11-09T11:13:39;100735.69;;;13.43;81.37
69630;BME280;56857;52.212;5.496;2022-11-09T11:16:22;100746.47;;;13.35;80.46
69630;BME280;56857;52.212;5.496;2022-11-09T11:18:48;100733.16;;;13.35;80.19
69630;BME280;56857;52.212;5.496;2022-11-09T11:21:16;100736.91;;;13.41;79.77
69630;BME280;56857;52.212;5.496;2022-11-09T11:23:42;100731.56;;;13.41;78.95
69630;BME280;56857;52.212;5.496;2022-11-09T11:28:49;100728.09;;;13.40;79.19
69630;BME280;56857;52.212;5.496;2022-11-09T11:31:17;100726.84;;;13.64;79.70
69630;BME280;56857;52.212;5.496;2022-11-09T11:33:44;100720.53;;;13.94;79.05
69630;BME280;56857;52.212;5.496;2022-11-09T11:39:08;100735.25;;;14.18;78.43
69630;BME280;56857;52.212;5.496;2022-11-09T11:47:24;100742.81;;;14.49;75.49
69630;BME280;56857;52.212;5.496;2022-11-09T12:00:49;100752.13;;;13.97;74.78
69630;BME280;56857;52.212;5.496;2022-11-09T12:03:37;100751.25;;;13.68;77.28
69630;BME280;56857;52.212;5.496;2022-11-09T12:06:27;100769.03;;;13.39;79.69
69630;BME280;56857;52.212;5.496;2022-11-09T12:09:22;100757.63;;;13.09;82.09
69630;BME280;56857;52.212;5.496;2022-11-09T12:12:03;100761.34;;;12.93;83.32
69630;BME280;56857;52.212;5.496;2022-11-09T12:14:48;100754.28;;;12.86;85.97
69630;BME280;56857;52.212;5.496;2022-11-09T12:20:02;100762.09;;;12.87;87.20
69630;BME280;56857;52.212;5.496;2022-11-09T12:22:43;100764.91;;;13.01;86.93
69630;BME280;56857;52.212;5.496;2022-11-09T12:31:16;100762.94;;;13.45;85.36
69630;BME280;56857;52.212;5.496;2022-11-09T12:33:51;100760.81;;;13.56;85.17
69630;BME280;56857;52.212;5.496;2022-11-09T12:36:46;100765.09;;;13.57;84.93
69630;BME280;56857;52.212;5.496;2022-11-09T12:41:47;100764.94;;;13.22;85.68
69630;BME280;56857;52.212;5.496;2022-11-09T12:44:17;100765.84;;;13.14;85.90
69630;BME280;56857;52.212;5.496;2022-11-09T12:46:51;100765.16;;;13.42;86.20
69630;BME280;56857;52.212;5.496;2022-11-09T12:49:32;100778.91;;;13.67;85.63
69630;BME280;56857;52.212;5.496;2022-11-09T12:51:59;100771.81;;;13.74;85.28
69630;BME280;56857;52.212;5.496;2022-11-09T12:54:24;100771.47;;;13.84;84.09
69630;BME280;56857;52.212;5.496;2022-11-09T12:56:57;100773.53;;;13.82;83.52
69630;BME280;56857;52.212;5.496;2022-11-09T13:01:55;100783.16;;;13.61;83.59
69630;BME280;56857;52.212;5.496;2022-11-09T13:04:23;100780.16;;;13.43;83.73
69630;BME280;56857;52.212;5.496;2022-11-09T13:09:33;100775.00;;;13.41;83.69
69630;BME280;56857;52.212;5.496;2022-11-09T13:12:15;100781.59;;;13.45;83.55
69630;BME280;56857;52.212;5.496;2022-11-09T13:14:42;100787.50;;;13.41;82.97
69630;BME280;56857;52.212;5.496;2022-11-09T13:19:54;100795.19;;;13.36;83.56
69630;BME280;56857;52.212;5.496;2022-11-09T13:27:40;100806.16;;;13.26;82.95
69630;BME280;56857;52.212;5.496;2022-11-09T13:33:16;100817.28;;;13.15;83.09
69630;BME280;56857;52.212;5.496;2022-11-09T13:38:17;100817.75;;;13.04;83.08
69630;BME280;56857;52.212;5.496;2022-11-09T13:40:45;100818.75;;;13.03;83.01
69630;BME280;56857;52.212;5.496;2022-11-09T13:43:15;100820.13;;;12.98;82.69
69630;BME280;56857;52.212;5.496;2022-11-09T13:45:50;100827.38;;;13.05;82.90
69630;BME280;56857;52.212;5.496;2022-11-09T13:48:28;100829.66;;;13.08;82.70
69630;BME280;56857;52.212;5.496;2022-11-09T13:50:56;100828.47;;;13.10;82.36
69630;BME280;56857;52.212;5.496;2022-11-09T13:53:53;100820.13;;;13.13;81.58
69630;BME280;56857;52.212;5.496;2022-11-09T13:56:32;100828.75;;;13.15;81.77
69630;BME280;56857;52.212;5.496;2022-11-09T14:01:54;100837.81;;;13.21;81.10
69630;BME280;56857;52.212;5.496;2022-11-09T14:13:01;100843.16;;;13.06;80.08
69630;BME280;56857;52.212;5.496;2022-11-09T14:15:40;100847.84;;;13.04;80.31
69630;BME280;56857;52.212;5.496;2022-11-09T14:18:33;100852.34;;;13.04;80.42
69630;BME280;56857;52.212;5.496;2022-11-09T14:23:30;100860.53;;;13.02;80.05
69630;BME280;56857;52.212;5.496;2022-11-09T14:25:57;100857.66;;;13.04;80.31
69630;BME280;56857;52.212;5.496;2022-11-09T14:28:28;100861.06;;;12.97;79.58
69630;BME280;56857;52.212;5.496;2022-11-09T14:30:55;100857.56;;;12.97;80.15